sensor_id;sensor_type;location;lat;lon;timestamp;P1;durP1;ratioP1;P2;durP2;ratioP2
13683;SDS011;6914;53.552;9.908;2022-10-31T00:01:06;35.90;;;21.70;;
13683;SDS011;6914;53.552;9.908;2022-10-31T00:03:37;28.60;;;20.87;;
13683;SDS011;6914;53.552;9.908;2022-10-31T00:06:04;50.17;;;22.13;;
13683;SDS011;6914;53.552;9.908;2022-10-31T00:08:31;40.17;;;21.87;;
13683;SDS011;6914;53.552;9.908;2022-10-31T00:10:58;40.20;;;21.63;;
13683;SDS011;6914;53.552;9.908;2022-10-31T00:13:24;43.73;;;21.87;;
13683;SDS011;6914;53.552;9.908;2022-10-31T00:15:51;42.70;;;20.67;;
13683;SDS011;6914;53.552;9.908;2022-10-31T00:18:18;40.00;;;22.20;;
13683;SDS011;6914;53.552;9.908;2022-10-31T00:20:46;47.80;;;22.93;;
13683;SDS011;6914;53.552;9.908;2022-10-31T00:23:13;39.67;;;21.90;;
13683;SDS011;6914;53.552;9.908;2022-10-31T00:25:40;36.70;;;21.20;;
13683;SDS011;6914;53.552;9.908;2022-10-31T00:28:07;43.40;;;22.43;;
13683;SDS011;6914;53.552;9.908;2022-10-31T00:30:37;35.43;;;21.33;;
13683;SDS011;6914;53.552;9.908;2022-10-31T00:33:03;45.13;;;22.33;;
13683;SDS011;6914;53.552;9.908;2022-10-31T00:35:30;40.90;;;21.27;;
13683;SDS011;6914;53.552;9.908;2022-10-31T00:37:58;30.27;;;21.10;;
13683;SDS011;6914;53.552;9.908;2022-10-31T00:40:25;34.73;;;22.87;;
13683;SDS011;6914;53.552;9.908;2022-10-31T00:42:52;38.57;;;22.93;;
13683;SDS011;6914;53.552;9.908;2022-10-31T00:45:19;38.47;;;23.23;;
13683;SDS011;6914;53.552;9.908;2022-10-31T00:47:46;34.00;;;23.57;;
13683;SDS011;6914;53.552;9.908;2022-10-31T00:50:12;31.50;;;22.37;;
13683;SDS011;6914;53.552;9.908;2022-10-31T00:52:39;35.97;;;22.43;;
13683;SDS011;6914;53.552;9.908;2022-10-31T00:55:07;44.43;;;21.43;;
13683;SDS011;6914;53.552;9.908;2022-10-31T00:57:34;40.10;;;20.90;;
13683;SDS011;6914;53.552;9.908;2022-10-31T01:00:01;27.87;;;21.40;;
13683;SDS011;6914;53.552;9.908;2022-10-31T01:02:28;32.17;;;21.50;;
13683;SDS011;6914;53.552;9.908;2022-10-31T01:04:55;44.23;;;23.80;;
13683;SDS011;6914;53.552;9.908;2022-10-31T01:07:22;41.07;;;23.70;;
13683;SDS011;6914;53.552;9.908;2022-10-31T01:09:49;35.00;;;23.20;;
13683;SDS011;6914;53.552;9.908;2022-10-31T01:12:17;36.83;;;25.30;;
13683;SDS011;6914;53.552;9.908;2022-10-31T01:14:43;37.33;;;24.23;;
13683;SDS011;6914;53.552;9.908;2022-10-31T01:17:10;42.23;;;24.00;;
13683;SDS011;6914;53.552;9.908;2022-10-31T01:19:37;44.23;;;24.33;;
13683;SDS011;6914;53.552;9.908;2022-10-31T01:22:04;56.37;;;23.93;;
13683;SDS011;6914;53.552;9.908;2022-10-31T01:24:31;48.40;;;24.37;;
13683;SDS011;6914;53.552;9.908;2022-10-31T01:26:58;39.13;;;21.97;;
13683;SDS011;6914;53.552;9.908;2022-10-31T01:29:26;45.80;;;25.20;;
13683;SDS011;6914;53.552;9.908;2022-10-31T01:31:53;46.57;;;27.67;;
13683;SDS011;6914;53.552;9.908;2022-10-31T01:34:19;57.77;;;26.70;;
13683;SDS011;6914;53.552;9.908;2022-10-31T01:36:46;48.37;;;25.23;;
13683;SDS011;6914;53.552;9.908;2022-10-31T01:39:16;42.10;;;25.93;;
13683;SDS011;6914;53.552;9.908;2022-10-31T01:41:44;54.97;;;27.73;;
13683;SDS011;6914;53.552;9.908;2022-10-31T01:47:17;44.87;;;27.73;;
13683;SDS011;6914;53.552;9.908;2022-10-31T01:49:53;55.10;;;27.23;;
13683;SDS011;6914;53.552;9.908;2022-10-31T01:52:23;54.73;;;27.47;;
13683;SDS011;6914;53.552;9.908;2022-10-31T01:54:53;38.27;;;27.77;;
13683;SDS011;6914;53.552;9.908;2022-10-31T01:57:24;48.10;;;29.57;;
13683;SDS011;6914;53.552;9.908;2022-10-31T01:59:56;62.83;;;28.57;;
13683;SDS011;6914;53.552;9.908;2022-10-31T02:02:25;51.67;;;26.97;;
13683;SDS011;6914;53.552;9.908;2022-10-31T02:04:53;45.10;;;28.87;;
13683;SDS011;6914;53.552;9.908;2022-10-31T02:07:23;52.20;;;30.30;;
13683;SDS011;6914;53.552;9.908;2022-10-31T02:09:53;66.63;;;31.47;;
13683;SDS011;6914;53.552;9.908;2022-10-31T02:12:23;51.53;;;30.43;;
13683;SDS011;6914;53.552;9.908;2022-10-31T02:14:51;58.83;;;30.90;;
13683;SDS011;6914;53.552;9.908;2022-10-31T02:17:19;53.23;;;31.40;;
13683;SDS011;6914;53.552;9.908;2022-10-31T02:19:48;46.50;;;29.57;;
13683;SDS011;6914;53.552;9.908;2022-10-31T02:22:20;60.57;;;30.00;;
13683;SDS011;6914;53.552;9.908;2022-10-31T02:25:02;48.80;;;28.80;;
13683;SDS011;6914;53.552;9.908;2022-10-31T02:27:43;69.87;;;32.30;;
13683;SDS011;6914;53.552;9.908;2022-10-31T02:30:28;58.33;;;32.63;;
13683;SDS011;6914;53.552;9.908;2022-10-31T02:33:13;58.70;;;31.77;;
13683;SDS011;6914;53.552;9.908;2022-10-31T02:35:49;50.50;;;30.47;;
13683;SDS011;6914;53.552;9.908;2022-10-31T02:38:24;73.20;;;32.87;;
13683;SDS011;6914;53.552;9.908;2022-10-31T02:41:01;58.97;;;32.30;;
13683;SDS011;6914;53.552;9.908;2022-10-31T02:43:34;57.93;;;30.83;;
13683;SDS011;6914;53.552;9.908;2022-10-31T02:46:07;58.63;;;31.30;;
13683;SDS011;6914;53.552;9.908;2022-10-31T02:48:41;64.87;;;31.63;;
13683;SDS011;6914;53.552;9.908;2022-10-31T02:51:10;61.07;;;33.00;;
13683;SDS011;6914;53.552;9.908;2022-10-31T02:53:38;71.03;;;33.67;;
13683;SDS011;6914;53.552;9.908;2022-10-31T02:56:05;54.03;;;31.27;;
13683;SDS011;6914;53.552;9.908;2022-10-31T02:58:38;60.33;;;32.47;;
13683;SDS011;6914;53.552;9.908;2022-10-31T03:01:10;58.30;;;33.70;;
13683;SDS011;6914;53.552;9.908;2022-10-31T03:03:56;58.40;;;32.63;;
13683;SDS011;6914;53.552;9.908;2022-10-31T03:06:33;62.80;;;33.47;;
13683;SDS011;6914;53.552;9.908;2022-10-31T03:09:07;58.17;;;31.53;;
13683;SDS011;6914;53.552;9.908;2022-10-31T03:11:41;58.17;;;34.63;;
13683;SDS011;6914;53.552;9.908;2022-10-31T03:14:12;59.37;;;33.33;;
13683;SDS011;6914;53.552;9.908;2022-10-31T03:16:45;55.13;;;32.27;;
13683;SDS011;6914;53.552;9.908;2022-10-31T03:19:15;59.53;;;33.17;;
13683;SDS011;6914;53.552;9.908;2022-10-31T03:21:46;61.47;;;33.20;;
13683;SDS011;6914;53.552;9.908;2022-10-31T03:24:16;71.77;;;32.70;;
13683;SDS011;6914;53.552;9.908;2022-10-31T03:26:45;65.43;;;35.47;;
13683;SDS011;6914;53.552;9.908;2022-10-31T03:29:15;69.10;;;33.77;;
13683;SDS011;6914;53.552;9.908;2022-10-31T03:31:47;66.17;;;32.97;;
13683;SDS011;6914;53.552;9.908;2022-10-31T03:34:20;58.93;;;33.57;;
13683;SDS011;6914;53.552;9.908;2022-10-31T03:36:47;77.70;;;33.17;;
13683;SDS011;6914;53.552;9.908;2022-10-31T03:39:17;64.33;;;36.50;;
13683;SDS011;6914;53.552;9.908;2022-10-31T03:41:47;68.97;;;36.67;;
13683;SDS011;6914;53.552;9.908;2022-10-31T03:44:19;58.83;;;35.20;;
13683;SDS011;6914;53.552;9.908;2022-10-31T03:46:47;73.30;;;36.20;;
13683;SDS011;6914;53.552;9.908;2022-10-31T03:49:14;69.37;;;36.33;;
13683;SDS011;6914;53.552;9.908;2022-10-31T03:51:44;61.73;;;34.13;;
13683;SDS011;6914;53.552;9.908;2022-10-31T03:54:20;60.77;;;33.17;;
13683;SDS011;6914;53.552;9.908;2022-10-31T03:56:53;84.23;;;36.87;;
13683;SDS011;6914;53.552;9.908;2022-10-31T03:59:24;80.13;;;37.63;;
13683;SDS011;6914;53.552;9.908;2022-10-31T04:01:55;70.60;;;36.70;;
13683;SDS011;6914;53.552;9.908;2022-10-31T04:04:25;81.43;;;37.57;;
13683;SDS011;6914;53.552;9.908;2022-10-31T04:06:54;67.50;;;36.93;;
13683;SDS011;6914;53.552;9.908;2022-10-31T04:09:25;70.03;;;36.77;;
13683;SDS011;6914;53.552;9.908;2022-10-31T04:11:54;71.13;;;36.83;;
13683;SDS011;6914;53.552;9.908;2022-10-31T04:14:23;76.13;;;36.87;;
13683;SDS011;6914;53.552;9.908;2022-10-31T04:16:52;84.27;;;36.13;;
13683;SDS011;6914;53.552;9.908;2022-10-31T04:19:20;74.47;;;37.43;;
13683;SDS011;6914;53.552;9.908;2022-10-31T04:21:47;74.67;;;38.37;;
13683;SDS011;6914;53.552;9.908;2022-10-31T04:24:15;92.77;;;38.00;;
13683;SDS011;6914;53.552;9.908;2022-10-31T04:26:42;66.93;;;37.30;;
13683;SDS011;6914;53.552;9.908;2022-10-31T04:29:08;84.63;;;37.50;;
13683;SDS011;6914;53.552;9.908;2022-10-31T04:31:35;72.30;;;37.17;;
13683;SDS011;6914;53.552;9.908;2022-10-31T04:34:02;69.73;;;38.50;;
13683;SDS011;6914;53.552;9.908;2022-10-31T04:36:29;81.90;;;38.67;;
13683;SDS011;6914;53.552;9.908;2022-10-31T04:38:55;75.03;;;37.40;;
13683;SDS011;6914;53.552;9.908;2022-10-31T04:41:23;85.20;;;39.33;;
13683;SDS011;6914;53.552;9.908;2022-10-31T04:43:50;91.00;;;39.10;;
13683;SDS011;6914;53.552;9.908;2022-10-31T04:46:17;85.17;;;39.60;;
13683;SDS011;6914;53.552;9.908;2022-10-31T04:48:44;93.10;;;39.37;;
13683;SDS011;6914;53.552;9.908;2022-10-31T04:51:11;80.57;;;42.40;;
13683;SDS011;6914;53.552;9.908;2022-10-31T04:53:37;67.93;;;37.50;;
13683;SDS011;6914;53.552;9.908;2022-10-31T04:56:04;80.77;;;42.43;;
13683;SDS011;6914;53.552;9.908;2022-10-31T04:58:33;79.77;;;41.97;;
13683;SDS011;6914;53.552;9.908;2022-10-31T05:00:59;92.33;;;39.30;;
13683;SDS011;6914;53.552;9.908;2022-10-31T05:03:26;86.90;;;42.13;;
13683;SDS011;6914;53.552;9.908;2022-10-31T05:05:53;104.93;;;41.30;;
13683;SDS011;6914;53.552;9.908;2022-10-31T05:08:20;96.43;;;42.70;;
13683;SDS011;6914;53.552;9.908;2022-10-31T05:10:46;84.67;;;40.40;;
13683;SDS011;6914;53.552;9.908;2022-10-31T05:13:13;83.73;;;42.70;;
13683;SDS011;6914;53.552;9.908;2022-10-31T05:15:42;88.17;;;40.40;;
13683;SDS011;6914;53.552;9.908;2022-10-31T05:18:09;73.90;;;39.40;;
13683;SDS011;6914;53.552;9.908;2022-10-31T05:20:35;77.50;;;39.93;;
13683;SDS011;6914;53.552;9.908;2022-10-31T05:23:02;75.40;;;37.87;;
13683;SDS011;6914;53.552;9.908;2022-10-31T05:25:29;87.83;;;41.10;;
13683;SDS011;6914;53.552;9.908;2022-10-31T05:27:56;87.57;;;40.83;;
13683;SDS011;6914;53.552;9.908;2022-10-31T05:30:25;135.13;;;37.90;;
13683;SDS011;6914;53.552;9.908;2022-10-31T05:32:54;134.73;;;38.27;;
13683;SDS011;6914;53.552;9.908;2022-10-31T05:35:21;172.33;;;37.67;;
13683;SDS011;6914;53.552;9.908;2022-10-31T05:37:49;127.87;;;36.47;;
13683;SDS011;6914;53.552;9.908;2022-10-31T05:40:17;125.23;;;38.73;;
13683;SDS011;6914;53.552;9.908;2022-10-31T05:42:44;73.70;;;34.47;;
13683;SDS011;6914;53.552;9.908;2022-10-31T05:45:14;182.53;;;36.97;;
13683;SDS011;6914;53.552;9.908;2022-10-31T05:47:42;155.47;;;35.80;;
13683;SDS011;6914;53.552;9.908;2022-10-31T05:50:10;188.73;;;37.57;;
13683;SDS011;6914;53.552;9.908;2022-10-31T05:52:36;192.03;;;36.80;;
13683;SDS011;6914;53.552;9.908;2022-10-31T05:55:03;179.67;;;35.53;;
13683;SDS011;6914;53.552;9.908;2022-10-31T05:57:31;121.67;;;35.33;;
13683;SDS011;6914;53.552;9.908;2022-10-31T05:59:58;135.80;;;35.10;;
13683;SDS011;6914;53.552;9.908;2022-10-31T06:02:25;194.37;;;35.97;;
13683;SDS011;6914;53.552;9.908;2022-10-31T06:04:56;137.33;;;34.00;;
13683;SDS011;6914;53.552;9.908;2022-10-31T06:07:24;195.10;;;34.67;;
13683;SDS011;6914;53.552;9.908;2022-10-31T06:09:51;168.40;;;35.50;;
13683;SDS011;6914;53.552;9.908;2022-10-31T06:12:18;157.90;;;33.70;;
13683;SDS011;6914;53.552;9.908;2022-10-31T06:14:45;64.93;;;33.27;;
13683;SDS011;6914;53.552;9.908;2022-10-31T06:17:11;78.50;;;34.00;;
13683;SDS011;6914;53.552;9.908;2022-10-31T06:19:38;115.23;;;31.70;;
13683;SDS011;6914;53.552;9.908;2022-10-31T06:22:05;96.73;;;31.93;;
13683;SDS011;6914;53.552;9.908;2022-10-31T06:24:33;112.63;;;30.43;;
13683;SDS011;6914;53.552;9.908;2022-10-31T06:27:00;158.57;;;30.60;;
13683;SDS011;6914;53.552;9.908;2022-10-31T06:29:26;105.87;;;32.37;;
13683;SDS011;6914;53.552;9.908;2022-10-31T06:31:53;108.90;;;31.10;;
13683;SDS011;6914;53.552;9.908;2022-10-31T06:34:20;68.17;;;31.23;;
13683;SDS011;6914;53.552;9.908;2022-10-31T06:36:47;104.27;;;31.80;;
13683;SDS011;6914;53.552;9.908;2022-10-31T06:39:13;109.27;;;29.60;;
13683;SDS011;6914;53.552;9.908;2022-10-31T06:41:42;72.97;;;29.37;;
13683;SDS011;6914;53.552;9.908;2022-10-31T06:44:09;112.30;;;28.60;;
13683;SDS011;6914;53.552;9.908;2022-10-31T06:46:35;106.50;;;28.53;;
13683;SDS011;6914;53.552;9.908;2022-10-31T06:49:02;118.87;;;27.73;;
13683;SDS011;6914;53.552;9.908;2022-10-31T06:51:29;102.33;;;25.97;;
13683;SDS011;6914;53.552;9.908;2022-10-31T06:53:56;55.67;;;27.10;;
13683;SDS011;6914;53.552;9.908;2022-10-31T06:56:22;151.97;;;28.40;;
13683;SDS011;6914;53.552;9.908;2022-10-31T06:58:51;150.77;;;27.77;;
13683;SDS011;6914;53.552;9.908;2022-10-31T07:01:18;70.33;;;26.07;;
13683;SDS011;6914;53.552;9.908;2022-10-31T07:03:44;241.23;;;26.77;;
13683;SDS011;6914;53.552;9.908;2022-10-31T07:06:11;132.03;;;26.30;;
13683;SDS011;6914;53.552;9.908;2022-10-31T07:08:38;98.87;;;25.93;;
13683;SDS011;6914;53.552;9.908;2022-10-31T07:11:05;230.97;;;25.27;;
13683;SDS011;6914;53.552;9.908;2022-10-31T07:13:32;170.53;;;23.83;;
13683;SDS011;6914;53.552;9.908;2022-10-31T07:16:00;219.43;;;25.07;;
13683;SDS011;6914;53.552;9.908;2022-10-31T07:18:28;112.53;;;24.00;;
13683;SDS011;6914;53.552;9.908;2022-10-31T07:20:55;91.73;;;24.57;;
13683;SDS011;6914;53.552;9.908;2022-10-31T07:23:22;83.50;;;22.60;;
13683;SDS011;6914;53.552;9.908;2022-10-31T07:25:53;171.57;;;23.73;;
13683;SDS011;6914;53.552;9.908;2022-10-31T07:28:21;97.47;;;24.07;;
13683;SDS011;6914;53.552;9.908;2022-10-31T07:30:49;228.00;;;23.93;;
13683;SDS011;6914;53.552;9.908;2022-10-31T07:33:17;97.40;;;22.90;;
13683;SDS011;6914;53.552;9.908;2022-10-31T07:35:52;198.60;;;23.87;;
13683;SDS011;6914;53.552;9.908;2022-10-31T07:38:31;131.13;;;23.73;;
13683;SDS011;6914;53.552;9.908;2022-10-31T07:40:57;191.10;;;24.60;;
13683;SDS011;6914;53.552;9.908;2022-10-31T07:43:25;163.93;;;24.03;;
13683;SDS011;6914;53.552;9.908;2022-10-31T07:45:52;214.70;;;22.97;;
13683;SDS011;6914;53.552;9.908;2022-10-31T07:48:21;198.83;;;23.43;;
13683;SDS011;6914;53.552;9.908;2022-10-31T07:50:48;79.87;;;21.73;;
13683;SDS011;6914;53.552;9.908;2022-10-31T07:53:14;121.30;;;22.80;;
13683;SDS011;6914;53.552;9.908;2022-10-31T07:55:42;152.47;;;22.03;;
13683;SDS011;6914;53.552;9.908;2022-10-31T07:58:10;102.23;;;21.13;;
13683;SDS011;6914;53.552;9.908;2022-10-31T08:00:38;128.93;;;21.60;;
13683;SDS011;6914;53.552;9.908;2022-10-31T08:03:07;94.07;;;20.93;;
13683;SDS011;6914;53.552;9.908;2022-10-31T08:05:36;44.97;;;20.47;;
13683;SDS011;6914;53.552;9.908;2022-10-31T08:08:06;67.77;;;21.70;;
13683;SDS011;6914;53.552;9.908;2022-10-31T08:10:33;25.97;;;20.63;;
13683;SDS011;6914;53.552;9.908;2022-10-31T08:13:01;44.40;;;19.77;;
13683;SDS011;6914;53.552;9.908;2022-10-31T08:15:30;51.30;;;21.70;;
13683;SDS011;6914;53.552;9.908;2022-10-31T08:17:59;83.77;;;20.90;;
13683;SDS011;6914;53.552;9.908;2022-10-31T08:20:27;59.33;;;20.37;;
13683;SDS011;6914;53.552;9.908;2022-10-31T08:22:56;120.03;;;20.63;;
13683;SDS011;6914;53.552;9.908;2022-10-31T08:25:35;45.80;;;20.00;;
13683;SDS011;6914;53.552;9.908;2022-10-31T08:28:03;62.50;;;20.20;;
13683;SDS011;6914;53.552;9.908;2022-10-31T08:30:31;28.00;;;20.73;;
13683;SDS011;6914;53.552;9.908;2022-10-31T08:33:00;80.93;;;21.20;;
13683;SDS011;6914;53.552;9.908;2022-10-31T08:35:28;68.83;;;21.63;;
13683;SDS011;6914;53.552;9.908;2022-10-31T08:37:56;77.00;;;22.33;;
13683;SDS011;6914;53.552;9.908;2022-10-31T08:40:23;83.10;;;20.20;;
13683;SDS011;6914;53.552;9.908;2022-10-31T08:43:01;65.20;;;19.77;;
13683;SDS011;6914;53.552;9.908;2022-10-31T08:45:29;71.73;;;19.00;;
13683;SDS011;6914;53.552;9.908;2022-10-31T08:47:57;38.70;;;19.13;;
13683;SDS011;6914;53.552;9.908;2022-10-31T08:50:25;94.23;;;20.10;;
13683;SDS011;6914;53.552;9.908;2022-10-31T08:52:52;162.37;;;20.70;;
13683;SDS011;6914;53.552;9.908;2022-10-31T08:55:20;185.90;;;20.90;;
13683;SDS011;6914;53.552;9.908;2022-10-31T08:57:47;51.83;;;21.07;;
13683;SDS011;6914;53.552;9.908;2022-10-31T09:00:14;71.80;;;20.47;;
13683;SDS011;6914;53.552;9.908;2022-10-31T09:02:40;124.03;;;20.20;;
13683;SDS011;6914;53.552;9.908;2022-10-31T09:05:07;79.40;;;19.57;;
13683;SDS011;6914;53.552;9.908;2022-10-31T09:07:34;43.30;;;18.53;;
13683;SDS011;6914;53.552;9.908;2022-10-31T09:10:01;50.67;;;20.17;;
13683;SDS011;6914;53.552;9.908;2022-10-31T09:12:30;91.73;;;18.30;;
13683;SDS011;6914;53.552;9.908;2022-10-31T09:14:57;125.93;;;19.60;;
13683;SDS011;6914;53.552;9.908;2022-10-31T09:17:25;214.63;;;21.23;;
13683;SDS011;6914;53.552;9.908;2022-10-31T09:19:54;161.27;;;20.50;;
13683;SDS011;6914;53.552;9.908;2022-10-31T09:22:20;171.57;;;22.40;;
13683;SDS011;6914;53.552;9.908;2022-10-31T09:24:47;65.97;;;20.90;;
13683;SDS011;6914;53.552;9.908;2022-10-31T09:27:14;42.97;;;18.90;;
13683;SDS011;6914;53.552;9.908;2022-10-31T09:29:42;61.00;;;20.97;;
13683;SDS011;6914;53.552;9.908;2022-10-31T09:32:09;33.50;;;20.33;;
13683;SDS011;6914;53.552;9.908;2022-10-31T09:34:35;51.77;;;23.43;;
13683;SDS011;6914;53.552;9.908;2022-10-31T09:37:02;36.27;;;22.37;;
13683;SDS011;6914;53.552;9.908;2022-10-31T09:39:29;29.67;;;21.40;;
13683;SDS011;6914;53.552;9.908;2022-10-31T09:42:00;45.30;;;21.50;;
13683;SDS011;6914;53.552;9.908;2022-10-31T09:44:39;36.50;;;21.17;;
13683;SDS011;6914;53.552;9.908;2022-10-31T09:47:17;60.00;;;23.57;;
13683;SDS011;6914;53.552;9.908;2022-10-31T09:49:58;97.90;;;25.77;;
13683;SDS011;6914;53.552;9.908;2022-10-31T09:52:33;156.57;;;28.50;;
13683;SDS011;6914;53.552;9.908;2022-10-31T09:55:04;161.17;;;30.80;;
13683;SDS011;6914;53.552;9.908;2022-10-31T09:57:36;92.07;;;28.70;;
13683;SDS011;6914;53.552;9.908;2022-10-31T10:00:05;69.20;;;29.10;;
13683;SDS011;6914;53.552;9.908;2022-10-31T10:02:37;109.87;;;28.80;;
13683;SDS011;6914;53.552;9.908;2022-10-31T10:05:09;58.23;;;28.93;;
13683;SDS011;6914;53.552;9.908;2022-10-31T10:07:40;81.87;;;28.03;;
13683;SDS011;6914;53.552;9.908;2022-10-31T10:10:13;54.27;;;27.80;;
13683;SDS011;6914;53.552;9.908;2022-10-31T10:12:57;53.23;;;28.37;;
13683;SDS011;6914;53.552;9.908;2022-10-31T10:15:53;49.53;;;28.60;;
13683;SDS011;6914;53.552;9.908;2022-10-31T10:18:32;78.20;;;30.40;;
13683;SDS011;6914;53.552;9.908;2022-10-31T10:21:16;56.47;;;28.77;;
13683;SDS011;6914;53.552;9.908;2022-10-31T10:23:56;86.53;;;25.50;;
13683;SDS011;6914;53.552;9.908;2022-10-31T10:26:36;71.47;;;26.10;;
13683;SDS011;6914;53.552;9.908;2022-10-31T10:29:08;49.27;;;26.80;;
13683;SDS011;6914;53.552;9.908;2022-10-31T10:31:49;52.70;;;24.90;;
13683;SDS011;6914;53.552;9.908;2022-10-31T10:34:18;69.60;;;26.27;;
13683;SDS011;6914;53.552;9.908;2022-10-31T10:36:50;64.30;;;26.33;;
13683;SDS011;6914;53.552;9.908;2022-10-31T10:39:27;43.53;;;25.33;;
13683;SDS011;6914;53.552;9.908;2022-10-31T10:41:59;51.67;;;28.43;;
13683;SDS011;6914;53.552;9.908;2022-10-31T10:44:44;43.03;;;23.90;;
13683;SDS011;6914;53.552;9.908;2022-10-31T10:47:35;49.83;;;24.20;;
13683;SDS011;6914;53.552;9.908;2022-10-31T10:50:07;50.20;;;27.07;;
13683;SDS011;6914;53.552;9.908;2022-10-31T10:52:41;51.10;;;28.50;;
13683;SDS011;6914;53.552;9.908;2022-10-31T10:55:16;70.47;;;28.27;;
13683;SDS011;6914;53.552;9.908;2022-10-31T10:57:55;58.87;;;29.10;;
13683;SDS011;6914;53.552;9.908;2022-10-31T11:00:25;57.43;;;31.03;;
13683;SDS011;6914;53.552;9.908;2022-10-31T11:02:56;59.67;;;32.33;;
13683;SDS011;6914;53.552;9.908;2022-10-31T11:05:25;60.60;;;31.77;;
13683;SDS011;6914;53.552;9.908;2022-10-31T11:07:56;59.63;;;31.30;;
13683;SDS011;6914;53.552;9.908;2022-10-31T11:10:23;55.47;;;30.90;;
13683;SDS011;6914;53.552;9.908;2022-10-31T11:12:58;70.23;;;28.73;;
13683;SDS011;6914;53.552;9.908;2022-10-31T11:15:28;59.60;;;30.13;;
13683;SDS011;6914;53.552;9.908;2022-10-31T11:17:59;71.03;;;33.37;;
13683;SDS011;6914;53.552;9.908;2022-10-31T11:20:29;67.93;;;30.67;;
13683;SDS011;6914;53.552;9.908;2022-10-31T11:23:15;72.33;;;33.63;;
13683;SDS011;6914;53.552;9.908;2022-10-31T11:25:51;73.33;;;32.80;;
13683;SDS011;6914;53.552;9.908;2022-10-31T11:28:20;68.83;;;32.83;;
13683;SDS011;6914;53.552;9.908;2022-10-31T11:30:47;67.87;;;32.30;;
13683;SDS011;6914;53.552;9.908;2022-10-31T11:33:22;79.37;;;34.10;;
13683;SDS011;6914;53.552;9.908;2022-10-31T11:35:55;78.03;;;34.50;;
13683;SDS011;6914;53.552;9.908;2022-10-31T11:38:24;86.90;;;34.53;;
13683;SDS011;6914;53.552;9.908;2022-10-31T11:40:56;85.63;;;36.33;;
13683;SDS011;6914;53.552;9.908;2022-10-31T11:43:25;86.20;;;37.77;;
13683;SDS011;6914;53.552;9.908;2022-10-31T11:45:53;85.60;;;38.20;;
13683;SDS011;6914;53.552;9.908;2022-10-31T11:48:21;77.07;;;35.87;;
13683;SDS011;6914;53.552;9.908;2022-10-31T11:50:51;73.27;;;36.97;;
13683;SDS011;6914;53.552;9.908;2022-10-31T11:53:19;76.37;;;34.83;;
13683;SDS011;6914;53.552;9.908;2022-10-31T11:56:03;80.27;;;38.33;;
13683;SDS011;6914;53.552;9.908;2022-10-31T11:58:32;83.33;;;39.87;;
13683;SDS011;6914;53.552;9.908;2022-10-31T12:00:59;74.60;;;38.37;;
13683;SDS011;6914;53.552;9.908;2022-10-31T12:03:29;78.57;;;37.63;;
13683;SDS011;6914;53.552;9.908;2022-10-31T12:06:06;83.60;;;38.90;;
13683;SDS011;6914;53.552;9.908;2022-10-31T12:08:37;76.77;;;35.83;;
13683;SDS011;6914;53.552;9.908;2022-10-31T12:11:08;81.83;;;36.20;;
13683;SDS011;6914;53.552;9.908;2022-10-31T12:13:43;66.47;;;34.60;;
13683;SDS011;6914;53.552;9.908;2022-10-31T12:16:22;77.53;;;35.43;;
13683;SDS011;6914;53.552;9.908;2022-10-31T12:19:00;73.23;;;35.50;;
13683;SDS011;6914;53.552;9.908;2022-10-31T12:21:38;65.93;;;34.70;;
13683;SDS011;6914;53.552;9.908;2022-10-31T12:24:26;54.40;;;31.73;;
13683;SDS011;6914;53.552;9.908;2022-10-31T12:27:13;43.57;;;27.03;;
13683;SDS011;6914;53.552;9.908;2022-10-31T12:29:53;55.50;;;27.47;;
13683;SDS011;6914;53.552;9.908;2022-10-31T12:32:31;56.67;;;30.10;;
13683;SDS011;6914;53.552;9.908;2022-10-31T12:35:23;51.13;;;30.50;;
13683;SDS011;6914;53.552;9.908;2022-10-31T12:38:03;59.00;;;32.67;;
13683;SDS011;6914;53.552;9.908;2022-10-31T12:40:53;57.03;;;32.67;;
13683;SDS011;6914;53.552;9.908;2022-10-31T12:43:36;54.03;;;31.70;;
13683;SDS011;6914;53.552;9.908;2022-10-31T12:46:14;49.93;;;30.73;;
13683;SDS011;6914;53.552;9.908;2022-10-31T12:51:44;48.17;;;28.67;;
13683;SDS011;6914;53.552;9.908;2022-10-31T12:54:28;51.70;;;28.73;;
13683;SDS011;6914;53.552;9.908;2022-10-31T12:57:04;48.00;;;27.33;;
13683;SDS011;6914;53.552;9.908;2022-10-31T12:59:38;44.37;;;27.40;;
13683;SDS011;6914;53.552;9.908;2022-10-31T13:02:12;53.80;;;26.57;;
13683;SDS011;6914;53.552;9.908;2022-10-31T13:04:46;41.00;;;26.13;;
13683;SDS011;6914;53.552;9.908;2022-10-31T13:07:19;38.30;;;25.63;;
13683;SDS011;6914;53.552;9.908;2022-10-31T13:09:53;50.17;;;25.20;;
13683;SDS011;6914;53.552;9.908;2022-10-31T13:12:24;41.70;;;24.70;;
13683;SDS011;6914;53.552;9.908;2022-10-31T13:14:55;42.10;;;24.27;;
13683;SDS011;6914;53.552;9.908;2022-10-31T13:17:26;36.03;;;22.13;;
13683;SDS011;6914;53.552;9.908;2022-10-31T13:19:59;36.17;;;21.67;;
13683;SDS011;6914;53.552;9.908;2022-10-31T13:22:39;30.67;;;21.40;;
13683;SDS011;6914;53.552;9.908;2022-10-31T13:25:11;32.70;;;20.57;;
13683;SDS011;6914;53.552;9.908;2022-10-31T13:27:44;30.20;;;20.30;;
13683;SDS011;6914;53.552;9.908;2022-10-31T13:30:16;29.63;;;19.80;;
13683;SDS011;6914;53.552;9.908;2022-10-31T13:32:45;26.67;;;19.97;;
13683;SDS011;6914;53.552;9.908;2022-10-31T13:35:18;27.43;;;17.40;;
13683;SDS011;6914;53.552;9.908;2022-10-31T13:37:51;25.53;;;18.30;;
13683;SDS011;6914;53.552;9.908;2022-10-31T13:40:32;25.63;;;18.53;;
13683;SDS011;6914;53.552;9.908;2022-10-31T13:43:06;26.30;;;15.47;;
13683;SDS011;6914;53.552;9.908;2022-10-31T13:45:49;26.93;;;14.37;;
13683;SDS011;6914;53.552;9.908;2022-10-31T13:48:18;24.90;;;15.10;;
13683;SDS011;6914;53.552;9.908;2022-10-31T13:51:01;18.17;;;14.80;;
13683;SDS011;6914;53.552;9.908;2022-10-31T13:53:39;25.03;;;15.40;;
13683;SDS011;6914;53.552;9.908;2022-10-31T13:56:17;21.13;;;14.07;;
13683;SDS011;6914;53.552;9.908;2022-10-31T14:01:45;27.80;;;15.93;;
13683;SDS011;6914;53.552;9.908;2022-10-31T14:04:15;20.30;;;14.20;;
13683;SDS011;6914;53.552;9.908;2022-10-31T14:06:46;20.90;;;15.70;;
13683;SDS011;6914;53.552;9.908;2022-10-31T14:09:26;27.03;;;16.83;;
13683;SDS011;6914;53.552;9.908;2022-10-31T14:11:55;24.57;;;16.47;;
13683;SDS011;6914;53.552;9.908;2022-10-31T14:14:25;47.80;;;18.97;;
13683;SDS011;6914;53.552;9.908;2022-10-31T14:16:58;26.00;;;15.77;;
13683;SDS011;6914;53.552;9.908;2022-10-31T14:19:25;23.07;;;14.37;;
13683;SDS011;6914;53.552;9.908;2022-10-31T14:21:53;17.77;;;14.47;;
13683;SDS011;6914;53.552;9.908;2022-10-31T14:24:35;19.57;;;15.10;;
13683;SDS011;6914;53.552;9.908;2022-10-31T14:27:04;21.60;;;13.43;;
13683;SDS011;6914;53.552;9.908;2022-10-31T14:29:47;21.47;;;13.87;;
13683;SDS011;6914;53.552;9.908;2022-10-31T14:32:18;24.67;;;13.43;;
13683;SDS011;6914;53.552;9.908;2022-10-31T14:34:51;22.63;;;14.93;;
13683;SDS011;6914;53.552;9.908;2022-10-31T14:37:24;28.53;;;16.27;;
13683;SDS011;6914;53.552;9.908;2022-10-31T14:43:07;33.20;;;14.87;;
13683;SDS011;6914;53.552;9.908;2022-10-31T14:45:58;21.10;;;15.27;;
13683;SDS011;6914;53.552;9.908;2022-10-31T14:51:18;25.87;;;16.87;;
13683;SDS011;6914;53.552;9.908;2022-10-31T14:53:53;33.37;;;17.57;;
13683;SDS011;6914;53.552;9.908;2022-10-31T14:56:23;32.77;;;17.73;;
13683;SDS011;6914;53.552;9.908;2022-10-31T14:58:52;26.33;;;17.23;;
13683;SDS011;6914;53.552;9.908;2022-10-31T15:01:21;37.17;;;17.53;;
13683;SDS011;6914;53.552;9.908;2022-10-31T15:03:51;35.23;;;18.40;;
13683;SDS011;6914;53.552;9.908;2022-10-31T15:06:20;32.23;;;19.63;;
13683;SDS011;6914;53.552;9.908;2022-10-31T15:08:52;25.20;;;17.07;;